UAL1169 PHNL-KLAX
Flight info
| Callsign | UAL1169 |
|---|---|
| Flight time | 1h 52m |
| Altitude | 39000 |
| Route | MKK5 KOLEA CLUTS R465 CIVIT R585 GITLE ADUMM GALIP R585 AUDIA SNAXX RYDRR2 |
| Aircraft | B772/H-SDE2E3FGHIJ5LORVWXY/LB1D1 |
Departure
| Time | 2026-04-25 06:18 |
|---|---|
| Airport | Daniel K. Inouye International Airport (PHNL) |
Arrival
| Time | 2026-04-25 08:11 |
|---|---|
| Airport | Los Angeles International Airport (KLAX) |
| Time | Latitude | Longitude | Altitude | Speed | Heading |
|---|---|---|---|---|---|
| 2026-04-25 06:02 | 21.32888 | -157.91710 | 10 ft | 0 kts | 36° |
| 2026-04-25 06:04 | 21.32879 | -157.91717 | 28 ft | 3 kts | 36° |
| 2026-04-25 06:04 | 21.32864 | -157.91729 | 27 ft | 3 kts | 36° |
| 2026-04-25 06:04 | 21.32848 | -157.91741 | 28 ft | 3 kts | 24° |
| 2026-04-25 06:04 | 21.32829 | -157.91747 | 27 ft | 3 kts | 2° |
| 2026-04-25 06:05 | 21.32809 | -157.91746 | 27 ft | 3 kts | 341° |
| 2026-04-25 06:05 | 21.32791 | -157.91736 | 26 ft | 3 kts | 320° |
| 2026-04-25 06:05 | 21.32778 | -157.91721 | 27 ft | 3 kts | 298° |
| 2026-04-25 06:05 | 21.32771 | -157.91701 | 27 ft | 3 kts | 276° |
| 2026-04-25 06:06 | 21.32771 | -157.91681 | 28 ft | 3 kts | 259° |
| 2026-04-25 06:06 | 21.32774 | -157.91662 | 28 ft | 3 kts | 264° |
| 2026-04-25 06:06 | 21.32775 | -157.91655 | 28 ft | 0 kts | 272° |
| 2026-04-25 06:08 | 21.32775 | -157.91656 | 28 ft | 1 kts | 272° |
| 2026-04-25 06:08 | 21.32775 | -157.91669 | 28 ft | 4 kts | 269° |
| 2026-04-25 06:08 | 21.32774 | -157.91722 | 28 ft | 8 kts | 270° |
| 2026-04-25 06:08 | 21.32774 | -157.91802 | 28 ft | 14 kts | 270° |
| 2026-04-25 06:09 | 21.32775 | -157.91927 | 28 ft | 18 kts | 270° |
| 2026-04-25 06:09 | 21.32775 | -157.92059 | 28 ft | 18 kts | 269° |
| 2026-04-25 06:09 | 21.32774 | -157.92192 | 29 ft | 18 kts | 270° |
| 2026-04-25 06:09 | 21.32775 | -157.92324 | 29 ft | 18 kts | 270° |
| 2026-04-25 06:10 | 21.32775 | -157.92457 | 29 ft | 18 kts | 269° |
| 2026-04-25 06:10 | 21.32775 | -157.92589 | 29 ft | 18 kts | 271° |
| 2026-04-25 06:10 | 21.32771 | -157.92721 | 29 ft | 18 kts | 260° |
| 2026-04-25 06:10 | 21.32743 | -157.92849 | 29 ft | 18 kts | 270° |
| 2026-04-25 06:11 | 21.32744 | -157.92982 | 29 ft | 18 kts | 270° |
| 2026-04-25 06:11 | 21.32743 | -157.93114 | 29 ft | 18 kts | 269° |
| 2026-04-25 06:11 | 21.32742 | -157.93247 | 29 ft | 18 kts | 269° |
| 2026-04-25 06:11 | 21.32742 | -157.93378 | 29 ft | 18 kts | 270° |
| 2026-04-25 06:12 | 21.32743 | -157.93510 | 29 ft | 18 kts | 270° |
| 2026-04-25 06:12 | 21.32743 | -157.93643 | 29 ft | 18 kts | 270° |
| 2026-04-25 06:12 | 21.32742 | -157.93775 | 29 ft | 18 kts | 270° |
| 2026-04-25 06:12 | 21.32741 | -157.93907 | 29 ft | 18 kts | 269° |
| 2026-04-25 06:13 | 21.32731 | -157.94038 | 29 ft | 18 kts | 249° |
| 2026-04-25 06:13 | 21.32637 | -157.94120 | 28 ft | 18 kts | 207° |
| 2026-04-25 06:13 | 21.32529 | -157.94184 | 29 ft | 18 kts | 213° |
| 2026-04-25 06:14 | 21.32316 | -157.94314 | 29 ft | 18 kts | 209° |
| 2026-04-25 06:14 | 21.32208 | -157.94378 | 29 ft | 18 kts | 208° |
| 2026-04-25 06:14 | 21.32100 | -157.94443 | 29 ft | 18 kts | 210° |
| 2026-04-25 06:14 | 21.31993 | -157.94509 | 29 ft | 18 kts | 210° |
| 2026-04-25 06:15 | 21.31885 | -157.94573 | 29 ft | 18 kts | 210° |
| 2026-04-25 06:15 | 21.31777 | -157.94636 | 27 ft | 18 kts | 206° |
| 2026-04-25 06:15 | 21.31657 | -157.94659 | 29 ft | 18 kts | 175° |
| 2026-04-25 06:15 | 21.31534 | -157.94645 | 29 ft | 18 kts | 172° |
| 2026-04-25 06:16 | 21.31412 | -157.94627 | 29 ft | 18 kts | 173° |
| 2026-04-25 06:16 | 21.31291 | -157.94614 | 29 ft | 18 kts | 173° |
| 2026-04-25 06:16 | 21.31167 | -157.94597 | 29 ft | 18 kts | 172° |
| 2026-04-25 06:16 | 21.31045 | -157.94578 | 29 ft | 18 kts | 174° |
| 2026-04-25 06:17 | 21.30923 | -157.94571 | 29 ft | 18 kts | 179° |
| 2026-04-25 06:17 | 21.30804 | -157.94571 | 29 ft | 15 kts | 181° |
| 2026-04-25 06:17 | 21.30707 | -157.94563 | 28 ft | 11 kts | 160° |
| 2026-04-25 06:17 | 21.30681 | -157.94513 | 30 ft | 6 kts | 89° |
| 2026-04-25 06:18 | 21.30681 | -157.94416 | 32 ft | 33 kts | 90° |
| 2026-04-25 06:18 | 21.30683 | -157.93833 | 32 ft | 126 kts | 90° |
| 2026-04-25 06:18 | 21.30677 | -157.92616 | 327 ft | 183 kts | 86° |
| 2026-04-25 06:18 | 21.30517 | -157.91229 | 1441 ft | 195 kts | 110° |
| 2026-04-25 06:19 | 21.29665 | -157.90121 | 2571 ft | 206 kts | 136° |
| 2026-04-25 06:19 | 21.28321 | -157.89295 | 2867 ft | 238 kts | 147° |
| 2026-04-25 06:19 | 21.26751 | -157.88468 | 3252 ft | 262 kts | 148° |
| 2026-04-25 06:19 | 21.25105 | -157.87612 | 4177 ft | 264 kts | 149° |
| 2026-04-25 06:20 | 21.23606 | -157.86501 | 4910 ft | 262 kts | 125° |
| 2026-04-25 06:20 | 21.22705 | -157.84809 | 5573 ft | 266 kts | 101° |
| 2026-04-25 06:20 | 21.22413 | -157.82869 | 6284 ft | 266 kts | 93° |
| 2026-04-25 06:20 | 21.22178 | -157.80856 | 6966 ft | 276 kts | 94° |
| 2026-04-25 06:21 | 21.21930 | -157.78807 | 7824 ft | 279 kts | 93° |
| 2026-04-25 06:21 | 21.21676 | -157.76716 | 8589 ft | 286 kts | 93° |
| 2026-04-25 06:21 | 21.21416 | -157.74573 | 9332 ft | 293 kts | 93° |
| 2026-04-25 06:21 | 21.21144 | -157.72404 | 10086 ft | 300 kts | 93° |
| 2026-04-25 06:22 | 21.20849 | -157.70141 | 10571 ft | 317 kts | 94° |
| 2026-04-25 06:22 | 21.20533 | -157.67709 | 10767 ft | 342 kts | 94° |
| 2026-04-25 06:22 | 21.20194 | -157.65077 | 10991 ft | 367 kts | 95° |
| 2026-04-25 06:22 | 21.19833 | -157.62328 | 11705 ft | 376 kts | 95° |
| 2026-04-25 06:23 | 21.19467 | -157.59525 | 12541 ft | 382 kts | 95° |
| 2026-04-25 06:23 | 21.19095 | -157.56697 | 13483 ft | 385 kts | 95° |
| 2026-04-25 06:23 | 21.18720 | -157.53850 | 14375 ft | 388 kts | 95° |
| 2026-04-25 06:23 | 21.18344 | -157.50969 | 15156 ft | 392 kts | 96° |
| 2026-04-25 06:24 | 21.17963 | -157.48051 | 15935 ft | 397 kts | 96° |
| 2026-04-25 06:24 | 21.17581 | -157.45148 | 16698 ft | 401 kts | 96° |
| 2026-04-25 06:24 | 21.17190 | -157.42179 | 17436 ft | 405 kts | 96° |
| 2026-04-25 06:24 | 21.16794 | -157.39176 | 18191 ft | 409 kts | 97° |
| 2026-04-25 06:25 | 21.16393 | -157.36134 | 18825 ft | 414 kts | 97° |
| 2026-04-25 06:25 | 21.15989 | -157.33075 | 19469 ft | 417 kts | 97° |
| 2026-04-25 06:25 | 21.15578 | -157.29988 | 20120 ft | 420 kts | 97° |
| 2026-04-25 06:25 | 21.15176 | -157.26965 | 20752 ft | 423 kts | 97° |
| 2026-04-25 06:26 | 21.14761 | -157.23831 | 21332 ft | 427 kts | 97° |
| 2026-04-25 06:26 | 21.14368 | -157.20673 | 21875 ft | 428 kts | 93° |
| 2026-04-25 06:26 | 21.14564 | -157.17473 | 22318 ft | 434 kts | 75° |
| 2026-04-25 06:26 | 21.15615 | -157.14461 | 23044 ft | 433 kts | 61° |
| 2026-04-25 06:27 | 21.17332 | -157.11814 | 23556 ft | 433 kts | 50° |
| 2026-04-25 06:27 | 21.19281 | -157.09308 | 23877 ft | 442 kts | 49° |
| 2026-04-25 06:27 | 21.21272 | -157.06782 | 24429 ft | 443 kts | 50° |
| 2026-04-25 06:27 | 21.23251 | -157.04257 | 25059 ft | 442 kts | 50° |
| 2026-04-25 06:28 | 21.25202 | -157.01742 | 25503 ft | 447 kts | 50° |
| 2026-04-25 06:28 | 21.27183 | -156.99159 | 25979 ft | 449 kts | 51° |
| 2026-04-25 06:28 | 21.29159 | -156.96560 | 26534 ft | 450 kts | 51° |
| 2026-04-25 06:28 | 21.31135 | -156.93952 | 26994 ft | 453 kts | 51° |
| 2026-04-25 06:29 | 21.33126 | -156.91317 | 27412 ft | 456 kts | 51° |
| 2026-04-25 06:29 | 21.35135 | -156.88656 | 27764 ft | 460 kts | 51° |
| 2026-04-25 06:29 | 21.37155 | -156.85980 | 28190 ft | 462 kts | 51° |
| 2026-04-25 06:29 | 21.39189 | -156.83286 | 28540 ft | 466 kts | 51° |
| 2026-04-25 06:30 | 21.41242 | -156.80565 | 28906 ft | 468 kts | 51° |
| 2026-04-25 06:30 | 21.43296 | -156.77841 | 29308 ft | 470 kts | 51° |
| 2026-04-25 06:30 | 21.45358 | -156.75104 | 29619 ft | 473 kts | 51° |
| 2026-04-25 06:30 | 21.47430 | -156.72352 | 29926 ft | 475 kts | 51° |
| 2026-04-25 06:31 | 21.49488 | -156.69618 | 30219 ft | 477 kts | 51° |
| 2026-04-25 06:31 | 21.51580 | -156.66837 | 30472 ft | 479 kts | 51° |
| 2026-04-25 06:31 | 21.53671 | -156.64052 | 30706 ft | 481 kts | 51° |
| 2026-04-25 06:31 | 21.55780 | -156.61244 | 30868 ft | 484 kts | 51° |
| 2026-04-25 06:32 | 21.57897 | -156.58427 | 31136 ft | 484 kts | 51° |
| 2026-04-25 06:32 | 21.60016 | -156.55611 | 31390 ft | 484 kts | 51° |
| 2026-04-25 06:32 | 21.62137 | -156.52800 | 31664 ft | 484 kts | 51° |
| 2026-04-25 06:32 | 21.64262 | -156.49982 | 31974 ft | 484 kts | 51° |
| 2026-04-25 06:33 | 21.66381 | -156.47169 | 32243 ft | 484 kts | 50° |
| 2026-04-25 06:33 | 21.68500 | -156.44350 | 32493 ft | 485 kts | 50° |
| 2026-04-25 06:33 | 21.70625 | -156.41519 | 32760 ft | 486 kts | 50° |
| 2026-04-25 06:33 | 21.72745 | -156.38689 | 33039 ft | 486 kts | 50° |
| 2026-04-25 06:34 | 21.74838 | -156.35892 | 33320 ft | 486 kts | 50° |
| 2026-04-25 06:34 | 21.76956 | -156.33058 | 33595 ft | 486 kts | 50° |
| 2026-04-25 06:34 | 21.79075 | -156.30217 | 33887 ft | 486 kts | 50° |
| 2026-04-25 06:34 | 21.81194 | -156.27377 | 34168 ft | 486 kts | 50° |
| 2026-04-25 06:35 | 21.83317 | -156.24529 | 34337 ft | 488 kts | 50° |
| 2026-04-25 06:35 | 21.85449 | -156.21663 | 34500 ft | 491 kts | 50° |
| 2026-04-25 06:35 | 21.87588 | -156.18794 | 34668 ft | 493 kts | 50° |
| 2026-04-25 06:35 | 21.89012 | -156.16881 | 34786 ft | 494 kts | 50° |
| 2026-04-25 06:36 | 21.91164 | -156.13992 | 34986 ft | 495 kts | 50° |
| 2026-04-25 06:36 | 21.93319 | -156.11093 | 35172 ft | 496 kts | 50° |
| 2026-04-25 06:36 | 21.95479 | -156.08186 | 35346 ft | 498 kts | 50° |
| 2026-04-25 06:36 | 21.97652 | -156.05266 | 35533 ft | 499 kts | 50° |
| 2026-04-25 06:37 | 21.99824 | -156.02348 | 35764 ft | 499 kts | 50° |
| 2026-04-25 06:37 | 22.02001 | -155.99421 | 36001 ft | 499 kts | 50° |
| 2026-04-25 06:37 | 22.04142 | -155.96541 | 36207 ft | 499 kts | 50° |
| 2026-04-25 06:37 | 22.06318 | -155.93613 | 36404 ft | 500 kts | 50° |
| 2026-04-25 06:38 | 22.08493 | -155.90683 | 36635 ft | 500 kts | 50° |
| 2026-04-25 06:38 | 22.10665 | -155.87758 | 36848 ft | 500 kts | 50° |
| 2026-04-25 06:38 | 22.12842 | -155.84823 | 36951 ft | 502 kts | 50° |
| 2026-04-25 06:39 | 22.17196 | -155.78949 | 37022 ft | 501 kts | 50° |
| 2026-04-25 06:39 | 22.21545 | -155.73073 | 37028 ft | 500 kts | 50° |
| 2026-04-25 06:40 | 22.25883 | -155.67207 | 37031 ft | 499 kts | 50° |
| 2026-04-25 06:40 | 22.30212 | -155.61346 | 37027 ft | 498 kts | 50° |
| 2026-04-25 06:41 | 22.34532 | -155.55492 | 37034 ft | 498 kts | 50° |
| 2026-04-25 06:41 | 22.38841 | -155.49644 | 37031 ft | 497 kts | 50° |
| 2026-04-25 06:42 | 22.43150 | -155.43791 | 37032 ft | 497 kts | 50° |
| 2026-04-25 06:42 | 22.47431 | -155.37969 | 37027 ft | 497 kts | 50° |
| 2026-04-25 06:43 | 22.51732 | -155.32117 | 37032 ft | 497 kts | 50° |
| 2026-04-25 06:43 | 22.56030 | -155.26263 | 37034 ft | 496 kts | 50° |
| 2026-04-25 06:44 | 22.60323 | -155.20413 | 37033 ft | 496 kts | 50° |
| 2026-04-25 06:44 | 22.64609 | -155.14560 | 37035 ft | 496 kts | 50° |
| 2026-04-25 06:45 | 22.68889 | -155.08710 | 37033 ft | 496 kts | 50° |
| 2026-04-25 06:45 | 22.73172 | -155.02857 | 37035 ft | 495 kts | 50° |
| 2026-04-25 06:46 | 22.77440 | -154.97003 | 37035 ft | 495 kts | 50° |
| 2026-04-25 06:46 | 22.81707 | -154.91139 | 37031 ft | 495 kts | 50° |
| 2026-04-25 06:47 | 22.85968 | -154.85279 | 37034 ft | 495 kts | 50° |
| 2026-04-25 06:47 | 22.90218 | -154.79422 | 37034 ft | 494 kts | 50° |
| 2026-04-25 06:48 | 22.94448 | -154.73599 | 37036 ft | 494 kts | 50° |
| 2026-04-25 06:48 | 22.98691 | -154.67740 | 37038 ft | 494 kts | 50° |
| 2026-04-25 06:49 | 23.02722 | -154.61698 | 37041 ft | 494 kts | 54° |
| 2026-04-25 06:49 | 23.06515 | -154.55468 | 37040 ft | 494 kts | 54° |
| 2026-04-25 06:50 | 23.10292 | -154.49214 | 37035 ft | 494 kts | 54° |
| 2026-04-25 06:50 | 23.14075 | -154.42975 | 37037 ft | 494 kts | 54° |
| 2026-04-25 06:51 | 23.17841 | -154.36776 | 37035 ft | 494 kts | 54° |
| 2026-04-25 06:51 | 23.21634 | -154.30532 | 37036 ft | 494 kts | 54° |
| 2026-04-25 06:52 | 23.25422 | -154.24291 | 37032 ft | 494 kts | 54° |
| 2026-04-25 06:52 | 23.29207 | -154.18046 | 37030 ft | 495 kts | 54° |
| 2026-04-25 06:53 | 23.32991 | -154.11792 | 37038 ft | 495 kts | 54° |
| 2026-04-25 06:53 | 23.36772 | -154.05532 | 37032 ft | 495 kts | 54° |
| 2026-04-25 06:54 | 23.40553 | -153.99278 | 37029 ft | 494 kts | 54° |
| 2026-04-25 06:54 | 23.44306 | -153.93056 | 37033 ft | 494 kts | 54° |
| 2026-04-25 06:55 | 23.48080 | -153.86789 | 37033 ft | 494 kts | 54° |
| 2026-04-25 06:55 | 23.51851 | -153.80518 | 37033 ft | 494 kts | 54° |
| 2026-04-25 06:56 | 23.55614 | -153.74251 | 37035 ft | 494 kts | 54° |
| 2026-04-25 06:56 | 23.59379 | -153.67972 | 37031 ft | 494 kts | 54° |
| 2026-04-25 06:57 | 23.63141 | -153.61689 | 37032 ft | 494 kts | 54° |
| 2026-04-25 06:57 | 23.66894 | -153.55412 | 37033 ft | 494 kts | 55° |
| 2026-04-25 06:58 | 23.70647 | -153.49128 | 37034 ft | 494 kts | 55° |
| 2026-04-25 06:58 | 23.74368 | -153.42873 | 37032 ft | 494 kts | 55° |
| 2026-04-25 06:59 | 23.78116 | -153.36586 | 37031 ft | 494 kts | 55° |
| 2026-04-25 06:59 | 23.81880 | -153.30307 | 37034 ft | 494 kts | 54° |
| 2026-04-25 07:00 | 23.85652 | -153.24043 | 37032 ft | 494 kts | 54° |
| 2026-04-25 07:00 | 23.89407 | -153.17763 | 37035 ft | 494 kts | 55° |
| 2026-04-25 07:01 | 23.93162 | -153.11474 | 37034 ft | 494 kts | 54° |
| 2026-04-25 07:01 | 23.96917 | -153.05184 | 37027 ft | 494 kts | 54° |
| 2026-04-25 07:02 | 24.00662 | -152.98889 | 37034 ft | 493 kts | 55° |
| 2026-04-25 07:02 | 24.04374 | -152.92636 | 37038 ft | 493 kts | 54° |
| 2026-04-25 07:03 | 24.08114 | -152.86334 | 37032 ft | 493 kts | 55° |
| 2026-04-25 07:03 | 24.11853 | -152.80023 | 37036 ft | 493 kts | 55° |
| 2026-04-25 07:04 | 24.15578 | -152.73728 | 37033 ft | 493 kts | 55° |
| 2026-04-25 07:04 | 24.19305 | -152.67426 | 37134 ft | 493 kts | 55° |
| 2026-04-25 07:04 | 24.21164 | -152.64280 | 37416 ft | 491 kts | 55° |
| 2026-04-25 07:05 | 24.23014 | -152.61145 | 37718 ft | 489 kts | 55° |
| 2026-04-25 07:05 | 24.24859 | -152.58017 | 37967 ft | 488 kts | 55° |
| 2026-04-25 07:05 | 24.26702 | -152.54891 | 38172 ft | 488 kts | 55° |
| 2026-04-25 07:05 | 24.28546 | -152.51760 | 38339 ft | 489 kts | 55° |
| 2026-04-25 07:06 | 24.30391 | -152.48627 | 38567 ft | 489 kts | 54° |
| 2026-04-25 07:06 | 24.32236 | -152.45496 | 38746 ft | 489 kts | 54° |
| 2026-04-25 07:06 | 24.34059 | -152.42402 | 38905 ft | 489 kts | 54° |
| 2026-04-25 07:07 | 24.37750 | -152.36129 | 39052 ft | 490 kts | 54° |
| 2026-04-25 07:07 | 24.41446 | -152.29826 | 39109 ft | 492 kts | 54° |
| 2026-04-25 07:08 | 24.45144 | -152.23513 | 39117 ft | 492 kts | 54° |
| 2026-04-25 07:08 | 24.48842 | -152.17193 | 39114 ft | 492 kts | 54° |
| 2026-04-25 07:09 | 24.52532 | -152.10877 | 39116 ft | 491 kts | 54° |
| 2026-04-25 07:09 | 24.56218 | -152.04562 | 39121 ft | 491 kts | 54° |
| 2026-04-25 07:10 | 24.59900 | -151.98239 | 39119 ft | 490 kts | 54° |
| 2026-04-25 07:10 | 24.63553 | -151.91977 | 39115 ft | 490 kts | 54° |
| 2026-04-25 07:11 | 24.67227 | -151.85669 | 39116 ft | 489 kts | 54° |
| 2026-04-25 07:11 | 24.70889 | -151.79361 | 39116 ft | 489 kts | 54° |
| 2026-04-25 07:12 | 24.74550 | -151.73054 | 39119 ft | 489 kts | 54° |
| 2026-04-25 07:12 | 24.80029 | -151.63589 | 39121 ft | 488 kts | 54° |
| 2026-04-25 07:13 | 24.83672 | -151.57285 | 39123 ft | 488 kts | 55° |
| 2026-04-25 07:13 | 24.87296 | -151.51010 | 39123 ft | 488 kts | 54° |
| 2026-04-25 07:14 | 24.90938 | -151.44696 | 39123 ft | 488 kts | 54° |
| 2026-04-25 07:14 | 24.94572 | -151.38387 | 39125 ft | 488 kts | 55° |
| 2026-04-25 07:15 | 24.98207 | -151.32066 | 39122 ft | 488 kts | 55° |
| 2026-04-25 07:15 | 25.01819 | -151.25782 | 39123 ft | 488 kts | 55° |
| 2026-04-25 07:16 | 25.05469 | -151.19413 | 39126 ft | 488 kts | 55° |
| 2026-04-25 07:16 | 25.09076 | -151.13109 | 39128 ft | 488 kts | 55° |
| 2026-04-25 07:17 | 25.12705 | -151.06760 | 39127 ft | 489 kts | 55° |
| 2026-04-25 07:17 | 25.16336 | -151.00408 | 39128 ft | 489 kts | 55° |
| 2026-04-25 07:18 | 25.19961 | -150.94056 | 39129 ft | 489 kts | 55° |
| 2026-04-25 07:18 | 25.23584 | -150.87703 | 39125 ft | 489 kts | 55° |
| 2026-04-25 07:19 | 25.27178 | -150.81388 | 39130 ft | 489 kts | 55° |
| 2026-04-25 07:19 | 25.30797 | -150.75025 | 39129 ft | 489 kts | 55° |
| 2026-04-25 07:20 | 25.34410 | -150.68659 | 39135 ft | 488 kts | 55° |
| 2026-04-25 07:20 | 25.38014 | -150.62298 | 39132 ft | 488 kts | 55° |
| 2026-04-25 07:21 | 25.65003 | -150.14410 | 39167 ft | 487 kts | 55° |
| 2026-04-25 07:21 | 26.21959 | -149.11662 | 39185 ft | 488 kts | 56° |
| 2026-04-25 07:22 | 26.78313 | -148.07608 | 39197 ft | 491 kts | 56° |
| 2026-04-25 07:22 | 27.25958 | -147.17217 | 39158 ft | 497 kts | 59° |
| 2026-04-25 07:23 | 27.46507 | -146.68917 | 39272 ft | 496 kts | 60° |
| 2026-04-25 07:23 | 27.94176 | -145.55753 | 39252 ft | 500 kts | 61° |
| 2026-04-25 07:24 | 28.41003 | -144.41244 | 39259 ft | 501 kts | 61° |
| 2026-04-25 07:24 | 28.86888 | -143.25699 | 39242 ft | 500 kts | 61° |
| 2026-04-25 07:25 | 29.24300 | -142.28798 | 39252 ft | 500 kts | 61° |
| 2026-04-25 07:25 | 29.68407 | -141.11185 | 39251 ft | 503 kts | 61° |
| 2026-04-25 07:26 | 30.09793 | -139.93191 | 39282 ft | 512 kts | 64° |
| 2026-04-25 07:26 | 30.49247 | -138.69695 | 39260 ft | 513 kts | 64° |
| 2026-04-25 07:27 | 30.87796 | -137.44264 | 39278 ft | 517 kts | 65° |
| 2026-04-25 07:27 | 31.25477 | -136.16578 | 39257 ft | 523 kts | 67° |
| 2026-04-25 07:28 | 31.61619 | -134.88874 | 39194 ft | 524 kts | 69° |
| 2026-04-25 07:28 | 31.97117 | -133.57770 | 39220 ft | 526 kts | 70° |
| 2026-04-25 07:29 | 32.20649 | -132.73254 | 39239 ft | 518 kts | 60° |
| 2026-04-25 07:29 | 32.32525 | -132.47227 | 39178 ft | 521 kts | 61° |
| 2026-04-25 07:30 | 32.63169 | -131.76917 | 39193 ft | 518 kts | 62° |
| 2026-04-25 07:30 | 33.15151 | -130.54501 | 39134 ft | 520 kts | 64° |
| 2026-04-25 07:31 | 33.66254 | -129.29785 | 39111 ft | 524 kts | 65° |
| 2026-04-25 07:31 | 33.87255 | -128.66320 | 39118 ft | 514 kts | 91° |
| 2026-04-25 07:32 | 33.89722 | -127.50957 | 39161 ft | 519 kts | 92° |
| 2026-04-25 07:32 | 33.91489 | -126.12026 | 39043 ft | 526 kts | 93° |
| 2026-04-25 07:33 | 33.92027 | -124.90468 | 39033 ft | 536 kts | 86° |
| 2026-04-25 07:33 | 34.03701 | -124.28151 | 38998 ft | 542 kts | 80° |
| 2026-04-25 07:34 | 34.24688 | -123.07878 | 39080 ft | 542 kts | 89° |
| 2026-04-25 07:34 | 34.22423 | -122.55000 | 39050 ft | 542 kts | 96° |
| 2026-04-25 07:35 | 34.21389 | -122.31059 | 39059 ft | 541 kts | 97° |
| 2026-04-25 07:35 | 34.16982 | -121.47935 | 39045 ft | 543 kts | 98° |
| 2026-04-25 07:36 | 34.16456 | -121.38818 | 39019 ft | 544 kts | 98° |
| 2026-04-25 07:36 | 34.15930 | -121.29700 | 39011 ft | 544 kts | 98° |
| 2026-04-25 07:37 | 34.15399 | -121.20629 | 38776 ft | 534 kts | 98° |
| 2026-04-25 07:37 | 34.15136 | -121.16157 | 38058 ft | 534 kts | 98° |
| 2026-04-25 07:37 | 34.14867 | -121.11729 | 37225 ft | 537 kts | 98° |
| 2026-04-25 07:38 | 34.14591 | -121.07222 | 36386 ft | 539 kts | 98° |
| 2026-04-25 07:38 | 34.14317 | -121.02694 | 35624 ft | 541 kts | 98° |
| 2026-04-25 07:38 | 34.14051 | -120.98167 | 34866 ft | 542 kts | 97° |
| 2026-04-25 07:38 | 34.14046 | -120.93618 | 34122 ft | 545 kts | 89° |
| 2026-04-25 07:39 | 34.14378 | -120.89038 | 33258 ft | 547 kts | 85° |
| 2026-04-25 07:39 | 34.14855 | -120.84479 | 32508 ft | 545 kts | 84° |
| 2026-04-25 07:39 | 34.15349 | -120.79957 | 31820 ft | 541 kts | 84° |
| 2026-04-25 07:39 | 34.15805 | -120.75467 | 31082 ft | 537 kts | 85° |
| 2026-04-25 07:40 | 34.16208 | -120.71002 | 30359 ft | 533 kts | 85° |
| 2026-04-25 07:40 | 34.16575 | -120.66566 | 29718 ft | 527 kts | 85° |
| 2026-04-25 07:40 | 34.16916 | -120.62190 | 29074 ft | 520 kts | 85° |
| 2026-04-25 07:40 | 34.17245 | -120.57863 | 28420 ft | 514 kts | 86° |
| 2026-04-25 07:41 | 34.17566 | -120.53636 | 27765 ft | 510 kts | 86° |
| 2026-04-25 07:41 | 34.17889 | -120.49390 | 27104 ft | 506 kts | 86° |
| 2026-04-25 07:41 | 34.18210 | -120.45181 | 26469 ft | 501 kts | 86° |
| 2026-04-25 07:41 | 34.18527 | -120.41000 | 25859 ft | 497 kts | 86° |
| 2026-04-25 07:42 | 34.18840 | -120.36864 | 25273 ft | 493 kts | 86° |
| 2026-04-25 07:42 | 34.19154 | -120.32774 | 24699 ft | 489 kts | 86° |
| 2026-04-25 07:42 | 34.19418 | -120.28703 | 24113 ft | 484 kts | 88° |
| 2026-04-25 07:42 | 34.19580 | -120.24657 | 23547 ft | 480 kts | 89° |
| 2026-04-25 07:43 | 34.19702 | -120.20636 | 22929 ft | 476 kts | 89° |
| 2026-04-25 07:43 | 34.19819 | -120.16653 | 22349 ft | 472 kts | 89° |
| 2026-04-25 07:43 | 34.19950 | -120.12717 | 21843 ft | 466 kts | 89° |
| 2026-04-25 07:43 | 34.20094 | -120.08856 | 21667 ft | 453 kts | 89° |
| 2026-04-25 07:44 | 34.20217 | -120.05110 | 21535 ft | 439 kts | 90° |
| 2026-04-25 07:44 | 34.20232 | -120.01462 | 21357 ft | 429 kts | 92° |
| 2026-04-25 07:44 | 34.20186 | -119.97898 | 21087 ft | 421 kts | 93° |
| 2026-04-25 07:44 | 34.20120 | -119.94419 | 20720 ft | 418 kts | 93° |
| 2026-04-25 07:45 | 34.20048 | -119.90870 | 20276 ft | 417 kts | 94° |
| 2026-04-25 07:45 | 34.19975 | -119.87374 | 19856 ft | 416 kts | 93° |
| 2026-04-25 07:45 | 34.19907 | -119.83897 | 19476 ft | 413 kts | 93° |
| 2026-04-25 07:45 | 34.19852 | -119.80434 | 19113 ft | 411 kts | 93° |
| 2026-04-25 07:46 | 34.19803 | -119.77040 | 18764 ft | 408 kts | 93° |
| 2026-04-25 07:46 | 34.19751 | -119.73613 | 18402 ft | 406 kts | 93° |
| 2026-04-25 07:46 | 34.19692 | -119.70210 | 18019 ft | 404 kts | 93° |
| 2026-04-25 07:46 | 34.19635 | -119.66829 | 17629 ft | 402 kts | 93° |
| 2026-04-25 07:47 | 34.19584 | -119.63469 | 17257 ft | 399 kts | 92° |
| 2026-04-25 07:47 | 34.19533 | -119.60130 | 16888 ft | 396 kts | 92° |
| 2026-04-25 07:47 | 34.19481 | -119.56813 | 16516 ft | 394 kts | 92° |
| 2026-04-25 07:47 | 34.19429 | -119.53510 | 16158 ft | 392 kts | 92° |
| 2026-04-25 07:48 | 34.19372 | -119.50226 | 15802 ft | 389 kts | 93° |
| 2026-04-25 07:48 | 34.19311 | -119.46971 | 15453 ft | 387 kts | 93° |
| 2026-04-25 07:48 | 34.19253 | -119.43727 | 15102 ft | 385 kts | 93° |
| 2026-04-25 07:48 | 34.19201 | -119.40504 | 14766 ft | 383 kts | 92° |
| 2026-04-25 07:49 | 34.19150 | -119.37291 | 14425 ft | 381 kts | 92° |
| 2026-04-25 07:49 | 34.19096 | -119.34107 | 14087 ft | 379 kts | 92° |
| 2026-04-25 07:49 | 34.19047 | -119.30933 | 13754 ft | 377 kts | 92° |
| 2026-04-25 07:49 | 34.18998 | -119.27778 | 13392 ft | 374 kts | 92° |
| 2026-04-25 07:50 | 34.18948 | -119.24688 | 13076 ft | 371 kts | 92° |
| 2026-04-25 07:50 | 34.18896 | -119.21587 | 12757 ft | 367 kts | 92° |
| 2026-04-25 07:50 | 34.18840 | -119.18510 | 12432 ft | 364 kts | 92° |
| 2026-04-25 07:50 | 34.18783 | -119.15459 | 12100 ft | 362 kts | 92° |
| 2026-04-25 07:51 | 34.18728 | -119.12431 | 11824 ft | 357 kts | 92° |
| 2026-04-25 07:51 | 34.18675 | -119.09473 | 11755 ft | 347 kts | 92° |
| 2026-04-25 07:51 | 34.18567 | -119.06631 | 11609 ft | 331 kts | 100° |
| 2026-04-25 07:51 | 34.17860 | -119.04056 | 11339 ft | 319 kts | 118° |
| 2026-04-25 07:52 | 34.16910 | -119.01685 | 11118 ft | 315 kts | 118° |
| 2026-04-25 07:52 | 34.15956 | -118.99322 | 10909 ft | 312 kts | 118° |
| 2026-04-25 07:52 | 34.15014 | -118.96970 | 10697 ft | 309 kts | 117° |
| 2026-04-25 07:52 | 34.14089 | -118.94642 | 10634 ft | 306 kts | 117° |
| 2026-04-25 07:53 | 34.13176 | -118.92335 | 10559 ft | 305 kts | 117° |
| 2026-04-25 07:53 | 34.12401 | -118.90374 | 10491 ft | 308 kts | 117° |
| 2026-04-25 07:53 | 34.11573 | -118.88270 | 10429 ft | 311 kts | 117° |
| 2026-04-25 07:53 | 34.10647 | -118.85916 | 10336 ft | 310 kts | 117° |
| 2026-04-25 07:54 | 34.09726 | -118.83569 | 10265 ft | 309 kts | 117° |
| 2026-04-25 07:54 | 34.08808 | -118.81231 | 10181 ft | 308 kts | 117° |
| 2026-04-25 07:54 | 34.07896 | -118.78902 | 10106 ft | 303 kts | 117° |
| 2026-04-25 07:54 | 34.07006 | -118.76628 | 10017 ft | 297 kts | 117° |
| 2026-04-25 07:55 | 34.06125 | -118.74385 | 9870 ft | 296 kts | 117° |
| 2026-04-25 07:55 | 34.05246 | -118.72156 | 9610 ft | 298 kts | 117° |
| 2026-04-25 07:55 | 34.04356 | -118.69882 | 9360 ft | 296 kts | 116° |
| 2026-04-25 07:55 | 34.03494 | -118.67669 | 9102 ft | 294 kts | 116° |
| 2026-04-25 07:56 | 34.02783 | -118.65380 | 8849 ft | 289 kts | 102° |
| 2026-04-25 07:56 | 34.02530 | -118.62993 | 8648 ft | 286 kts | 95° |
| 2026-04-25 07:56 | 34.02368 | -118.60616 | 8435 ft | 284 kts | 95° |
| 2026-04-25 07:56 | 34.02184 | -118.58249 | 8223 ft | 283 kts | 95° |
| 2026-04-25 07:57 | 34.01980 | -118.55897 | 8020 ft | 282 kts | 96° |
| 2026-04-25 07:57 | 34.01770 | -118.53542 | 7781 ft | 283 kts | 96° |
| 2026-04-25 07:57 | 34.01554 | -118.51205 | 7565 ft | 279 kts | 96° |
| 2026-04-25 07:57 | 34.01339 | -118.48895 | 7324 ft | 276 kts | 96° |
| 2026-04-25 07:58 | 34.01126 | -118.46613 | 7079 ft | 272 kts | 96° |
| 2026-04-25 07:58 | 34.01141 | -118.44379 | 6921 ft | 260 kts | 79° |
| 2026-04-25 07:58 | 34.01513 | -118.42285 | 6658 ft | 250 kts | 75° |
| 2026-04-25 07:58 | 34.01900 | -118.40296 | 6436 ft | 239 kts | 76° |
| 2026-04-25 07:59 | 34.02260 | -118.38331 | 6247 ft | 241 kts | 77° |
| 2026-04-25 07:59 | 34.02613 | -118.36355 | 6089 ft | 240 kts | 77° |
| 2026-04-25 07:59 | 34.02905 | -118.34390 | 6020 ft | 237 kts | 81° |
| 2026-04-25 07:59 | 34.03103 | -118.32427 | 6000 ft | 236 kts | 82° |
| 2026-04-25 08:00 | 34.03294 | -118.30461 | 5999 ft | 236 kts | 82° |
| 2026-04-25 08:00 | 34.03495 | -118.28548 | 5972 ft | 222 kts | 81° |
| 2026-04-25 08:00 | 34.03704 | -118.26765 | 5960 ft | 209 kts | 81° |
| 2026-04-25 08:00 | 34.03907 | -118.25048 | 6011 ft | 205 kts | 81° |
| 2026-04-25 08:01 | 34.04110 | -118.23328 | 5998 ft | 208 kts | 81° |
| 2026-04-25 08:01 | 34.04312 | -118.21619 | 6003 ft | 208 kts | 81° |
| 2026-04-25 08:01 | 34.04514 | -118.19886 | 5938 ft | 211 kts | 81° |
| 2026-04-25 08:01 | 34.04724 | -118.18112 | 5624 ft | 213 kts | 81° |
| 2026-04-25 08:02 | 34.04933 | -118.16361 | 5437 ft | 207 kts | 81° |
| 2026-04-25 08:02 | 34.05132 | -118.14672 | 5293 ft | 200 kts | 81° |
| 2026-04-25 08:02 | 34.05324 | -118.13021 | 5156 ft | 198 kts | 80° |
| 2026-04-25 08:02 | 34.05479 | -118.11370 | 5055 ft | 198 kts | 91° |
| 2026-04-25 08:03 | 34.05027 | -118.09825 | 5001 ft | 199 kts | 130° |
| 2026-04-25 08:03 | 34.03889 | -118.08922 | 4988 ft | 198 kts | 166° |
| 2026-04-25 08:03 | 34.02533 | -118.08647 | 4988 ft | 198 kts | 174° |
| 2026-04-25 08:03 | 34.01160 | -118.08464 | 4989 ft | 199 kts | 175° |
| 2026-04-25 08:04 | 33.99784 | -118.08288 | 4985 ft | 198 kts | 176° |
| 2026-04-25 08:04 | 33.98463 | -118.08493 | 4982 ft | 189 kts | 203° |
| 2026-04-25 08:04 | 33.97330 | -118.09300 | 4795 ft | 193 kts | 229° |
| 2026-04-25 08:04 | 33.96762 | -118.10736 | 4617 ft | 192 kts | 256° |
| 2026-04-25 08:05 | 33.96475 | -118.12284 | 4358 ft | 192 kts | 258° |
| 2026-04-25 08:05 | 33.96258 | -118.13862 | 4128 ft | 188 kts | 261° |
| 2026-04-25 08:05 | 33.96083 | -118.15412 | 3863 ft | 187 kts | 261° |
| 2026-04-25 08:05 | 33.95923 | -118.16947 | 3599 ft | 182 kts | 262° |
| 2026-04-25 08:06 | 33.95768 | -118.18441 | 3357 ft | 177 kts | 261° |
| 2026-04-25 08:06 | 33.95622 | -118.19885 | 3128 ft | 170 kts | 261° |
| 2026-04-25 08:06 | 33.95479 | -118.21267 | 2904 ft | 162 kts | 260° |
| 2026-04-25 08:06 | 33.95342 | -118.22593 | 2734 ft | 156 kts | 260° |
| 2026-04-25 08:07 | 33.95214 | -118.23835 | 2488 ft | 142 kts | 261° |
| 2026-04-25 08:07 | 33.95098 | -118.24984 | 2355 ft | 136 kts | 260° |
| 2026-04-25 08:07 | 33.94983 | -118.26127 | 2153 ft | 138 kts | 260° |
| 2026-04-25 08:07 | 33.94867 | -118.27261 | 1948 ft | 135 kts | 260° |
| 2026-04-25 08:08 | 33.94750 | -118.28377 | 1770 ft | 134 kts | 259° |
| 2026-04-25 08:08 | 33.94635 | -118.29483 | 1594 ft | 133 kts | 259° |
| 2026-04-25 08:08 | 33.94520 | -118.30597 | 1415 ft | 134 kts | 259° |
| 2026-04-25 08:08 | 33.94411 | -118.31708 | 1238 ft | 133 kts | 259° |
| 2026-04-25 08:09 | 33.94297 | -118.32809 | 1046 ft | 131 kts | 258° |
| 2026-04-25 08:09 | 33.94187 | -118.33876 | 864 ft | 129 kts | 260° |
| 2026-04-25 08:09 | 33.94076 | -118.34947 | 691 ft | 128 kts | 258° |
| 2026-04-25 08:09 | 33.93967 | -118.36014 | 517 ft | 127 kts | 259° |
| 2026-04-25 08:10 | 33.93858 | -118.37067 | 335 ft | 127 kts | 256° |
| 2026-04-25 08:10 | 33.93751 | -118.38126 | 183 ft | 128 kts | 257° |
| 2026-04-25 08:10 | 33.93650 | -118.39163 | 109 ft | 114 kts | 256° |
| 2026-04-25 08:10 | 33.93561 | -118.39982 | 116 ft | 81 kts | 263° |
| 2026-04-25 08:11 | 33.93505 | -118.40531 | 115 ft | 52 kts | 261° |
| 2026-04-25 08:11 | 33.93478 | -118.40882 | 114 ft | 30 kts | 269° |
| 2026-04-25 08:11 | 33.93512 | -118.41108 | 113 ft | 27 kts | 289° |
| 2026-04-25 08:11 | 33.93596 | -118.41258 | 111 ft | 19 kts | 345° |
| 2026-04-25 08:12 | 33.93709 | -118.41280 | 108 ft | 15 kts | 358° |
| 2026-04-25 08:12 | 33.93754 | -118.41217 | 107 ft | 10 kts | 86° |
| 2026-04-25 08:12 | 33.93763 | -118.41134 | 106 ft | 10 kts | 83° |
| 2026-04-25 08:12 | 33.93771 | -118.41050 | 106 ft | 10 kts | 83° |
| 2026-04-25 08:13 | 33.93779 | -118.40969 | 106 ft | 10 kts | 82° |
| 2026-04-25 08:13 | 33.93788 | -118.40884 | 106 ft | 10 kts | 83° |
| 2026-04-25 08:13 | 33.93797 | -118.40802 | 107 ft | 10 kts | 77° |
| 2026-04-25 08:14 | 33.93891 | -118.40685 | 104 ft | 10 kts | 69° |
| 2026-04-25 08:14 | 33.93898 | -118.40628 | 105 ft | 10 kts | 82° |
| 2026-04-25 08:14 | 33.93906 | -118.40543 | 102 ft | 10 kts | 84° |
| 2026-04-25 08:14 | 33.93916 | -118.40458 | 102 ft | 10 kts | 82° |
| 2026-04-25 08:15 | 33.93926 | -118.40341 | 105 ft | 21 kts | 83° |
| 2026-04-25 08:15 | 33.93945 | -118.40166 | 104 ft | 19 kts | 83° |
| 2026-04-25 08:15 | 33.93989 | -118.40046 | 102 ft | 13 kts | 44° |
| 2026-04-25 08:15 | 33.94017 | -118.40008 | 102 ft | 3 kts | 48° |
| 2026-04-25 08:16 | 33.94028 | -118.39993 | 104 ft | 2 kts | 50° |
| 2026-04-25 08:16 | 33.94033 | -118.39986 | 103 ft | 0 kts | 50° |